Time;durP1;ratioP1;P1;durP2;ratioP2;P2;SDS_P1;SDS_P2;PMS_P1;PMS_P2;Temp;Humidity;BMP_temperature;BMP_pressure;BME280_temperature;BME280_humidity;BME280_pressure;Samples;Min_cycle;Max_cycle;Signal;HPM_P1;HPM_P2
2021/09/11 00:00:30;;;;;;;10.10;7.57;;;;;;;;;;4769458;30;20043;-83
2021/09/11 00:02:57;;;;;;;9.77;7.78;;;;;;;;;;4785146;30;20430;-83
2021/09/11 00:05:23;;;;;;;11.23;8.35;;;;;;;;;;4769402;29;20754;-79
2021/09/11 00:07:50;;;;;;;11.27;7.53;;;;;;;;;;4785440;30;20071;-82
2021/09/11 00:10:16;;;;;;;11.82;7.13;;;;;;;;;;4785113;29;20043;-83
2021/09/11 00:12:41;;;;;;;8.32;6.88;;;;;;;;;;4769756;30;20046;-83
2021/09/11 00:15:11;;;;;;;8.98;7.10;;;;;;;;;;4780840;29;20488;-82
2021/09/11 00:17:36;;;;;;;13.98;7.47;;;;;;;;;;4785508;30;20487;-82
2021/09/11 00:20:03;;;;;;;13.18;7.40;;;;;;;;;;4783620;29;20054;-80
2021/09/11 00:22:28;;;;;;;10.50;7.88;;;;;;;;;;4768935;30;20042;-83
2021/09/11 00:24:53;;;;;;;9.30;7.00;;;;;;;;;;4768687;30;20047;-83
2021/09/11 00:27:19;;;;;;;11.65;7.57;;;;;;;;;;4765040;30;20046;-83
2021/09/11 00:29:44;;;;;;;10.63;7.93;;;;;;;;;;4770845;30;20043;-81
2021/09/11 00:32:10;;;;;;;11.77;7.45;;;;;;;;;;4769671;30;20039;-80
2021/09/11 00:34:35;;;;;;;11.88;7.93;;;;;;;;;;4771058;30;20130;-83
2021/09/11 00:37:01;;;;;;;11.23;8.00;;;;;;;;;;4785535;30;20042;-81
2021/09/11 00:39:27;;;;;;;12.90;7.80;;;;;;;;;;4786557;30;20043;-83
2021/09/11 00:41:53;;;;;;;14.77;8.10;;;;;;;;;;4774693;30;20039;-82
2021/09/11 00:44:19;;;;;;;12.23;8.07;;;;;;;;;;4784932;29;20046;-83
2021/09/11 00:46:44;;;;;;;13.05;8.00;;;;;;;;;;4783639;30;20035;-82
2021/09/11 00:49:10;;;;;;;14.30;8.32;;;;;;;;;;4769420;30;20035;-81
2021/09/11 00:51:36;;;;;;;10.40;7.68;;;;;;;;;;4770613;30;20578;-80
2021/09/11 00:54:03;;;;;;;15.18;7.70;;;;;;;;;;4755621;30;20061;-82
2021/09/11 00:56:30;;;;;;;11.57;8.23;;;;;;;;;;4784221;30;20031;-81
2021/09/11 00:58:56;;;;;;;10.82;7.80;;;;;;;;;;4769556;30;20035;-82
2021/09/11 01:01:22;;;;;;;11.35;7.97;;;;;;;;;;4769719;30;20380;-82
2021/09/11 01:03:47;;;;;;;10.45;7.78;;;;;;;;;;4784702;30;20141;-81
2021/09/11 01:06:13;;;;;;;10.32;8.30;;;;;;;;;;4755209;30;20539;-82
2021/09/11 01:08:43;;;;;;;11.50;8.40;;;;;;;;;;4784990;30;20450;-82
2021/09/11 01:11:09;;;;;;;11.68;7.95;;;;;;;;;;4786869;29;20066;-80
2021/09/11 01:13:36;;;;;;;11.23;7.82;;;;;;;;;;4783941;29;20125;-81
2021/09/11 01:16:01;;;;;;;11.75;8.23;;;;;;;;;;4769459;30;20120;-83
2021/09/11 01:18:27;;;;;;;10.63;7.68;;;;;;;;;;4783482;29;20039;-82
2021/09/11 01:20:53;;;;;;;13.38;7.68;;;;;;;;;;4784740;30;20088;-82
2021/09/11 01:23:20;;;;;;;11.93;7.75;;;;;;;;;;4787210;30;20043;-81
2021/09/11 01:25:46;;;;;;;11.15;7.35;;;;;;;;;;4750638;30;20043;-83
2021/09/11 01:28:12;;;;;;;13.32;7.72;;;;;;;;;;4769380;29;20050;-81
2021/09/11 01:30:37;;;;;;;12.68;7.55;;;;;;;;;;4769804;30;20039;-82
2021/09/11 01:33:03;;;;;;;10.95;7.72;;;;;;;;;;4754148;30;20035;-82
2021/09/11 01:35:28;;;;;;;12.35;7.57;;;;;;;;;;4766359;30;20039;-80
2021/09/11 01:37:54;;;;;;;10.93;7.93;;;;;;;;;;4755499;30;20043;-80
2021/09/11 01:40:21;;;;;;;9.60;7.22;;;;;;;;;;4751991;29;20042;-82
2021/09/11 01:42:46;;;;;;;12.02;7.72;;;;;;;;;;4771112;30;20045;-83
2021/09/11 01:45:21;;;;;;;12.90;7.90;;;;;;;;;;4782140;30;20039;-81
2021/09/11 01:47:48;;;;;;;11.15;7.90;;;;;;;;;;4784423;29;20125;-82
2021/09/11 01:50:16;;;;;;;11.98;7.80;;;;;;;;;;4767227;30;20049;-81
2021/09/11 01:52:43;;;;;;;12.43;7.65;;;;;;;;;;4780672;30;20057;-82
2021/09/11 01:55:11;;;;;;;11.35;7.25;;;;;;;;;;4767902;30;20057;-83
2021/09/11 01:57:38;;;;;;;12.10;7.57;;;;;;;;;;4783596;30;20039;-80
2021/09/11 02:00:12;;;;;;;11.55;7.40;;;;;;;;;;4768797;29;20420;-81
2021/09/11 02:02:38;;;;;;;11.45;6.97;;;;;;;;;;4782179;30;20127;-80
2021/09/11 02:05:10;;;;;;;11.52;7.38;;;;;;;;;;4784571;29;20074;-80
2021/09/11 02:07:35;;;;;;;10.27;7.13;;;;;;;;;;4775800;30;20062;-81
2021/09/11 02:10:03;;;;;;;11.18;7.28;;;;;;;;;;4758015;29;20051;-82
2021/09/11 02:12:28;;;;;;;9.52;6.90;;;;;;;;;;4770674;29;20034;-82
2021/09/11 02:14:54;;;;;;;11.65;7.53;;;;;;;;;;4749161;30;20050;-82
2021/09/11 02:17:19;;;;;;;9.00;6.95;;;;;;;;;;4786404;29;20051;-80
2021/09/11 02:19:46;;;;;;;12.57;7.65;;;;;;;;;;4752293;30;20043;-80
2021/09/11 02:22:11;;;;;;;10.38;6.97;;;;;;;;;;4785631;30;20039;-83
2021/09/11 02:24:40;;;;;;;12.60;7.20;;;;;;;;;;4784981;29;20111;-83
2021/09/11 02:27:06;;;;;;;11.13;7.22;;;;;;;;;;4785311;30;20476;-81
2021/09/11 02:29:33;;;;;;;11.38;8.02;;;;;;;;;;4783440;30;20040;-83
2021/09/11 02:32:01;;;;;;;11.82;8.45;;;;;;;;;;4756655;30;20078;-80
2021/09/11 02:34:27;;;;;;;13.20;8.20;;;;;;;;;;4755582;30;20793;-80
2021/09/11 02:36:53;;;;;;;14.00;8.13;;;;;;;;;;4782300;30;20031;-80
2021/09/11 02:39:18;;;;;;;16.95;9.13;;;;;;;;;;4781249;30;20492;-83
2021/09/11 02:41:43;;;;;;;15.82;10.02;;;;;;;;;;4753074;30;20131;-83
2021/09/11 02:44:09;;;;;;;16.15;10.07;;;;;;;;;;4761596;30;20496;-83
2021/09/11 02:46:34;;;;;;;14.32;9.00;;;;;;;;;;4771847;30;20077;-83
2021/09/11 02:49:00;;;;;;;16.33;9.43;;;;;;;;;;4750795;30;20040;-81
2021/09/11 02:51:26;;;;;;;13.77;9.70;;;;;;;;;;4772316;30;20407;-82
2021/09/11 02:53:51;;;;;;;13.00;9.02;;;;;;;;;;4785890;29;20540;-81
2021/09/11 02:56:17;;;;;;;14.68;10.18;;;;;;;;;;4757157;30;20069;-81
2021/09/11 02:58:42;;;;;;;16.08;9.48;;;;;;;;;;4758721;30;20103;-82
2021/09/11 03:01:07;;;;;;;13.88;8.98;;;;;;;;;;4758408;30;20058;-80
2021/09/11 03:03:33;;;;;;;14.00;9.20;;;;;;;;;;4770872;30;20119;-83
2021/09/11 03:05:58;;;;;;;13.85;9.65;;;;;;;;;;4773360;30;20449;-81
2021/09/11 03:08:24;;;;;;;15.00;10.13;;;;;;;;;;4755168;30;20083;-82
2021/09/11 03:10:49;;;;;;;14.25;10.02;;;;;;;;;;4752205;30;20043;-80
2021/09/11 03:13:15;;;;;;;20.50;9.70;;;;;;;;;;4786047;29;20110;-80
2021/09/11 03:15:40;;;;;;;15.85;9.73;;;;;;;;;;4771444;30;20039;-80
2021/09/11 03:18:06;;;;;;;13.80;9.43;;;;;;;;;;4772433;30;20039;-80
2021/09/11 03:20:31;;;;;;;15.43;9.48;;;;;;;;;;4758855;30;21002;-82
2021/09/11 03:22:57;;;;;;;14.70;9.10;;;;;;;;;;4788347;30;20065;-81
2021/09/11 03:25:22;;;;;;;14.27;9.82;;;;;;;;;;4771884;30;20043;-81
2021/09/11 03:27:48;;;;;;;13.07;9.90;;;;;;;;;;4787890;30;20388;-83
2021/09/11 03:30:13;;;;;;;14.23;9.60;;;;;;;;;;4768553;30;20036;-80
2021/09/11 03:32:38;;;;;;;12.55;9.50;;;;;;;;;;4772294;30;20028;-83
2021/09/11 03:35:04;;;;;;;12.02;8.85;;;;;;;;;;4771182;30;20039;-80
2021/09/11 03:37:30;;;;;;;13.73;9.07;;;;;;;;;;4757655;30;20572;-83
2021/09/11 03:39:55;;;;;;;12.07;8.93;;;;;;;;;;4759450;30;20388;-81
2021/09/11 03:42:21;;;;;;;12.75;9.23;;;;;;;;;;4771866;30;20035;-81
2021/09/11 03:44:46;;;;;;;16.08;9.77;;;;;;;;;;4771849;30;20174;-83
2021/09/11 03:47:11;;;;;;;13.98;9.27;;;;;;;;;;4771338;30;20126;-80
2021/09/11 03:49:37;;;;;;;13.65;9.10;;;;;;;;;;4784719;29;20526;-83
2021/09/11 03:52:02;;;;;;;12.88;8.77;;;;;;;;;;4772448;30;20059;-83
2021/09/11 03:54:28;;;;;;;14.68;8.50;;;;;;;;;;4786724;30;20037;-81
2021/09/11 03:56:53;;;;;;;12.52;7.90;;;;;;;;;;4785321;29;20047;-81
2021/09/11 03:59:18;;;;;;;14.70;8.85;;;;;;;;;;4771566;30;20514;-81
2021/09/11 04:01:44;;;;;;;10.82;7.63;;;;;;;;;;4787232;29;20058;-83
2021/09/11 04:04:09;;;;;;;11.75;8.05;;;;;;;;;;4771227;30;20126;-82
2021/09/11 04:06:35;;;;;;;11.90;8.20;;;;;;;;;;4770795;30;20050;-81
2021/09/11 04:09:00;;;;;;;13.50;8.63;;;;;;;;;;4771335;30;20373;-83
2021/09/11 04:11:25;;;;;;;10.52;7.47;;;;;;;;;;4767696;30;20392;-81
2021/09/11 04:13:51;;;;;;;10.90;8.10;;;;;;;;;;4755223;30;20049;-82
2021/09/11 04:16:16;;;;;;;9.70;7.20;;;;;;;;;;4771166;30;20499;-81
2021/09/11 04:18:41;;;;;;;13.82;7.88;;;;;;;;;;4787793;30;20043;-82
2021/09/11 04:21:07;;;;;;;13.90;7.65;;;;;;;;;;4771615;30;20071;-83
2021/09/11 04:23:33;;;;;;;11.68;7.60;;;;;;;;;;4777592;30;20050;-83
2021/09/11 04:25:58;;;;;;;11.80;7.90;;;;;;;;;;4754396;30;20511;-79
2021/09/11 04:28:23;;;;;;;11.70;7.43;;;;;;;;;;4768786;30;20036;-83
2021/09/11 04:30:49;;;;;;;11.73;7.13;;;;;;;;;;4769584;30;20050;-83
2021/09/11 04:33:14;;;;;;;10.38;6.78;;;;;;;;;;4771759;30;20078;-83
2021/09/11 04:35:40;;;;;;;13.18;6.72;;;;;;;;;;4765476;30;20175;-81
2021/09/11 04:38:05;;;;;;;12.90;7.13;;;;;;;;;;4785785;30;20546;-81
2021/09/11 04:40:30;;;;;;;11.80;6.85;;;;;;;;;;4786549;29;20372;-80
2021/09/11 04:42:56;;;;;;;11.10;6.47;;;;;;;;;;4786648;30;20043;-80
2021/09/11 04:45:23;;;;;;;10.27;6.20;;;;;;;;;;4771320;30;20039;-81
2021/09/11 04:47:48;;;;;;;10.13;6.50;;;;;;;;;;4771674;30;20100;-81
2021/09/11 04:50:14;;;;;;;10.98;6.45;;;;;;;;;;4786623;30;20038;-83
2021/09/11 04:52:39;;;;;;;8.05;5.97;;;;;;;;;;4769224;29;20054;-81
2021/09/11 04:55:07;;;;;;;9.93;5.95;;;;;;;;;;4754261;30;20069;-83
2021/09/11 04:57:37;;;;;;;8.43;5.88;;;;;;;;;;4771746;30;20031;-80
2021/09/11 05:00:06;;;;;;;9.13;6.32;;;;;;;;;;4745323;30;20074;-81
2021/09/11 05:02:32;;;;;;;11.40;6.45;;;;;;;;;;4785710;30;20031;-83
2021/09/11 05:04:57;;;;;;;13.77;6.35;;;;;;;;;;4785805;30;20902;-80
2021/09/11 05:07:24;;;;;;;8.48;6.18;;;;;;;;;;4788182;29;20074;-81
2021/09/11 05:09:50;;;;;;;9.57;6.07;;;;;;;;;;4767595;30;20134;-81
2021/09/11 05:12:15;;;;;;;12.25;6.38;;;;;;;;;;4782019;30;20440;-83
2021/09/11 05:14:41;;;;;;;10.70;6.38;;;;;;;;;;4770480;30;20487;-84
2021/09/11 05:17:06;;;;;;;9.75;6.03;;;;;;;;;;4788280;29;20038;-81
2021/09/11 05:19:31;;;;;;;8.55;5.80;;;;;;;;;;4755271;30;20051;-80
2021/09/11 05:21:57;;;;;;;9.48;5.68;;;;;;;;;;4740508;30;20039;-80
2021/09/11 05:24:22;;;;;;;10.18;6.05;;;;;;;;;;4783766;30;20376;-84
2021/09/11 05:26:48;;;;;;;9.07;5.50;;;;;;;;;;4770335;30;20043;-81
2021/09/11 05:29:13;;;;;;;9.77;5.72;;;;;;;;;;4786833;29;20043;-80
2021/09/11 05:31:39;;;;;;;11.60;5.28;;;;;;;;;;4770499;30;20399;-81
2021/09/11 05:34:05;;;;;;;9.15;5.75;;;;;;;;;;4784795;30;20019;-83
2021/09/11 05:36:32;;;;;;;7.78;5.53;;;;;;;;;;4786666;30;20548;-81
2021/09/11 05:38:57;;;;;;;7.35;5.38;;;;;;;;;;4770235;30;20384;-84
2021/09/11 05:41:22;;;;;;;9.63;5.65;;;;;;;;;;4767053;30;20047;-80
2021/09/11 05:43:48;;;;;;;10.02;5.85;;;;;;;;;;4770429;30;20042;-81
2021/09/11 05:46:13;;;;;;;9.38;5.43;;;;;;;;;;4754740;30;20043;-84
2021/09/11 05:48:39;;;;;;;7.85;5.40;;;;;;;;;;4770570;30;20379;-81
2021/09/11 05:51:04;;;;;;;7.65;5.60;;;;;;;;;;4784524;30;20042;-81
2021/09/11 05:53:29;;;;;;;9.95;5.40;;;;;;;;;;4770333;30;20042;-83
2021/09/11 05:55:55;;;;;;;11.55;5.40;;;;;;;;;;4784122;30;20102;-83
2021/09/11 05:58:20;;;;;;;8.70;6.00;;;;;;;;;;4768402;30;20411;-80
2021/09/11 06:00:46;;;;;;;8.88;5.47;;;;;;;;;;4756090;30;20096;-83
2021/09/11 06:03:12;;;;;;;8.30;5.90;;;;;;;;;;4771284;30;20035;-83
2021/09/11 06:05:37;;;;;;;11.20;6.05;;;;;;;;;;4774799;30;20042;-84
2021/09/11 06:08:03;;;;;;;9.75;5.00;;;;;;;;;;4758597;30;20032;-84
2021/09/11 06:10:28;;;;;;;10.18;5.65;;;;;;;;;;4785013;30;20077;-81
2021/09/11 06:12:54;;;;;;;11.10;5.65;;;;;;;;;;4785758;30;20038;-80
2021/09/11 06:15:19;;;;;;;8.88;5.05;;;;;;;;;;4765862;30;20410;-83
2021/09/11 06:17:45;;;;;;;9.40;5.70;;;;;;;;;;4769347;30;20065;-84
2021/09/11 06:20:11;;;;;;;10.65;5.55;;;;;;;;;;4750196;30;20126;-81
2021/09/11 06:22:37;;;;;;;9.95;5.10;;;;;;;;;;4770640;30;20062;-82
2021/09/11 06:25:03;;;;;;;8.13;4.85;;;;;;;;;;4770690;30;20043;-84
2021/09/11 06:27:28;;;;;;;10.00;4.97;;;;;;;;;;4785462;30;20047;-82
2021/09/11 06:29:54;;;;;;;10.80;5.30;;;;;;;;;;4755114;30;20042;-83
2021/09/11 06:32:19;;;;;;;8.82;5.20;;;;;;;;;;4755405;30;20046;-81
2021/09/11 06:34:45;;;;;;;9.93;5.50;;;;;;;;;;4769496;30;20178;-82
2021/09/11 06:37:10;;;;;;;11.43;5.20;;;;;;;;;;4772060;30;20031;-84
2021/09/11 06:39:35;;;;;;;11.73;5.50;;;;;;;;;;4754816;30;20039;-81
2021/09/11 06:42:01;;;;;;;9.60;5.43;;;;;;;;;;4771751;30;20115;-81
2021/09/11 06:44:26;;;;;;;7.82;5.07;;;;;;;;;;4754406;30;20047;-84
2021/09/11 06:46:52;;;;;;;11.98;5.50;;;;;;;;;;4755478;30;20415;-84
2021/09/11 06:49:17;;;;;;;10.50;5.68;;;;;;;;;;4769426;30;20520;-84
2021/09/11 06:51:43;;;;;;;9.27;5.28;;;;;;;;;;4769551;30;20134;-81
2021/09/11 06:54:08;;;;;;;8.85;5.30;;;;;;;;;;4768628;30;20053;-82
2021/09/11 06:56:34;;;;;;;10.23;5.50;;;;;;;;;;4768551;30;20051;-83
2021/09/11 06:58:59;;;;;;;9.57;5.20;;;;;;;;;;4754730;30;20681;-81
2021/09/11 07:01:25;;;;;;;9.75;5.68;;;;;;;;;;4779732;29;20035;-82
2021/09/11 07:03:50;;;;;;;8.82;4.95;;;;;;;;;;4767968;30;20031;-81
2021/09/11 07:06:16;;;;;;;11.15;5.22;;;;;;;;;;4770554;30;20042;-83
2021/09/11 07:08:42;;;;;;;8.38;6.00;;;;;;;;;;4768924;30;20047;-81
2021/09/11 07:11:12;;;;;;;9.80;5.80;;;;;;;;;;4760892;30;20820;-84
2021/09/11 07:13:38;;;;;;;9.88;6.07;;;;;;;;;;4770347;30;20034;-84
2021/09/11 07:16:04;;;;;;;11.48;6.50;;;;;;;;;;4774117;30;20115;-82
2021/09/11 07:18:29;;;;;;;10.85;6.13;;;;;;;;;;4764653;30;20039;-85
2021/09/11 07:20:55;;;;;;;9.23;6.50;;;;;;;;;;4766540;30;20079;-83
2021/09/11 07:23:20;;;;;;;9.65;6.60;;;;;;;;;;4771783;30;20036;-83
2021/09/11 07:25:46;;;;;;;14.10;6.47;;;;;;;;;;4769397;30;20047;-82
2021/09/11 07:28:11;;;;;;;10.30;6.90;;;;;;;;;;4753609;30;20087;-84
2021/09/11 07:30:36;;;;;;;10.63;6.65;;;;;;;;;;4785442;29;20070;-82
2021/09/11 07:33:02;;;;;;;11.73;6.75;;;;;;;;;;4744900;30;20042;-83
2021/09/11 07:35:28;;;;;;;12.48;6.90;;;;;;;;;;4773714;30;20032;-83
2021/09/11 07:37:53;;;;;;;11.23;7.05;;;;;;;;;;4772278;30;20043;-83
2021/09/11 07:40:19;;;;;;;11.32;6.20;;;;;;;;;;4746058;30;20407;-83
2021/09/11 07:42:47;;;;;;;15.38;7.65;;;;;;;;;;4752777;30;20047;-81
2021/09/11 07:45:15;;;;;;;11.00;7.22;;;;;;;;;;4767303;30;20043;-83
2021/09/11 07:47:41;;;;;;;11.63;8.20;;;;;;;;;;4779031;30;20043;-85
2021/09/11 07:50:07;;;;;;;12.80;7.65;;;;;;;;;;4771373;30;20097;-82
2021/09/11 07:52:33;;;;;;;14.07;8.30;;;;;;;;;;4785498;30;20051;-84
2021/09/11 07:54:58;;;;;;;14.90;8.52;;;;;;;;;;4772353;30;20039;-83
2021/09/11 07:57:23;;;;;;;13.45;8.68;;;;;;;;;;4772974;30;20039;-80
2021/09/11 07:59:49;;;;;;;16.48;8.85;;;;;;;;;;4764887;29;20078;-80
2021/09/11 08:02:14;;;;;;;15.70;9.35;;;;;;;;;;4787788;29;20507;-82
2021/09/11 08:04:40;;;;;;;13.55;9.75;;;;;;;;;;4785205;29;20069;-81
2021/09/11 08:07:05;;;;;;;14.48;10.30;;;;;;;;;;4782255;30;20550;-81
2021/09/11 08:09:31;;;;;;;13.55;10.20;;;;;;;;;;4782470;30;20050;-83
2021/09/11 08:11:57;;;;;;;15.57;10.65;;;;;;;;;;4768380;30;20042;-81
2021/09/11 08:14:23;;;;;;;16.02;11.70;;;;;;;;;;4770106;30;20035;-80
2021/09/11 08:16:48;;;;;;;13.13;10.70;;;;;;;;;;4769138;30;20049;-81
2021/09/11 08:19:14;;;;;;;16.60;11.55;;;;;;;;;;4770580;30;20038;-82
2021/09/11 08:21:39;;;;;;;14.63;11.93;;;;;;;;;;4757536;30;20039;-84
2021/09/11 08:24:05;;;;;;;18.33;13.02;;;;;;;;;;4769136;30;20114;-82
2021/09/11 08:26:30;;;;;;;17.58;13.00;;;;;;;;;;4767459;30;20670;-80
2021/09/11 08:28:56;;;;;;;19.67;13.25;;;;;;;;;;4771646;30;20039;-82
2021/09/11 08:31:22;;;;;;;18.73;12.73;;;;;;;;;;4772363;30;20031;-80
2021/09/11 08:33:48;;;;;;;16.38;12.85;;;;;;;;;;4787054;29;20066;-82
2021/09/11 08:36:13;;;;;;;17.45;13.00;;;;;;;;;;4786234;30;20062;-85
2021/09/11 08:38:39;;;;;;;20.83;13.38;;;;;;;;;;4787629;30;20039;-83
2021/09/11 08:41:08;;;;;;;17.00;12.30;;;;;;;;;;4787498;29;20047;-80
2021/09/11 08:43:35;;;;;;;18.38;11.40;;;;;;;;;;4771765;30;20031;-84
2021/09/11 08:46:01;;;;;;;16.33;12.43;;;;;;;;;;4776482;30;20509;-79
2021/09/11 08:48:27;;;;;;;19.50;12.05;;;;;;;;;;4785010;29;20043;-84
2021/09/11 08:50:53;;;;;;;18.15;12.93;;;;;;;;;;4785861;30;20114;-84
2021/09/11 08:53:19;;;;;;;18.98;14.20;;;;;;;;;;4772031;30;20479;-84
2021/09/11 08:55:45;;;;;;;18.40;13.35;;;;;;;;;;4787161;30;20085;-84
2021/09/11 08:58:10;;;;;;;18.58;13.30;;;;;;;;;;4782984;30;20028;-83
2021/09/11 09:00:42;;;;;;;19.65;13.90;;;;;;;;;;4769670;30;20039;-85
2021/09/11 09:03:37;;;;;;;18.48;13.75;;;;;;;;;;4772445;30;20035;-80
2021/09/11 09:06:10;;;;;;;18.52;13.75;;;;;;;;;;4784394;30;20046;-82
2021/09/11 09:08:37;;;;;;;20.98;14.05;;;;;;;;;;4771843;30;20103;-85
2021/09/11 09:11:21;;;;;;;22.75;14.20;;;;;;;;;;4776094;29;20134;-84
2021/09/11 09:13:57;;;;;;;18.48;13.75;;;;;;;;;;4769385;30;20499;-82
2021/09/11 09:16:23;;;;;;;18.20;13.77;;;;;;;;;;4782411;30;20046;-82
2021/09/11 09:18:52;;;;;;;20.98;14.30;;;;;;;;;;4771069;30;20045;-85
2021/09/11 09:21:25;;;;;;;15.80;12.45;;;;;;;;;;4772312;30;20038;-82
2021/09/11 09:24:03;;;;;;;21.02;13.57;;;;;;;;;;4791144;29;20047;-85
2021/09/11 09:26:29;;;;;;;20.08;13.82;;;;;;;;;;4784096;30;20042;-85
2021/09/11 09:29:03;;;;;;;16.77;13.50;;;;;;;;;;4782681;30;20043;-83
2021/09/11 09:31:29;;;;;;;18.17;13.02;;;;;;;;;;4782124;29;20042;-82
2021/09/11 09:33:55;;;;;;;19.58;13.55;;;;;;;;;;4782742;30;20023;-81
2021/09/11 09:36:20;;;;;;;15.88;13.40;;;;;;;;;;4756879;30;20043;-82
2021/09/11 09:38:46;;;;;;;17.15;12.73;;;;;;;;;;4756742;30;20135;-82
2021/09/11 09:41:13;;;;;;;17.55;13.18;;;;;;;;;;4786193;30;20176;-83
2021/09/11 09:43:43;;;;;;;18.50;14.07;;;;;;;;;;4781230;29;20100;-85
2021/09/11 09:46:14;;;;;;;19.15;13.65;;;;;;;;;;4763924;30;20047;-82
2021/09/11 09:48:41;;;;;;;21.00;14.27;;;;;;;;;;4767184;30;20043;-83
2021/09/11 09:51:08;;;;;;;19.58;14.48;;;;;;;;;;4783256;29;20042;-81
2021/09/11 09:53:35;;;;;;;20.95;15.23;;;;;;;;;;4772062;30;20070;-82
2021/09/11 09:56:01;;;;;;;20.10;14.45;;;;;;;;;;4782266;29;20038;-82
2021/09/11 09:58:26;;;;;;;18.63;13.95;;;;;;;;;;4787571;30;20031;-83
2021/09/11 10:00:52;;;;;;;21.17;15.18;;;;;;;;;;4787041;29;20047;-82
2021/09/11 10:03:18;;;;;;;22.08;14.55;;;;;;;;;;4784200;30;20035;-85
2021/09/11 10:05:48;;;;;;;18.70;14.45;;;;;;;;;;4768890;30;20043;-84
2021/09/11 10:08:16;;;;;;;18.67;15.20;;;;;;;;;;4782071;30;20030;-81
2021/09/11 10:10:47;;;;;;;20.42;14.32;;;;;;;;;;4784993;30;20047;-84
2021/09/11 10:13:22;;;;;;;18.35;14.80;;;;;;;;;;4787212;30;20036;-83
2021/09/11 10:16:10;;;;;;;17.70;14.00;;;;;;;;;;4784181;30;20084;-85
2021/09/11 10:18:36;;;;;;;22.85;15.15;;;;;;;;;;4767314;30;20831;-84
2021/09/11 10:21:23;;;;;;;;;;;;;;;;;;;;;
2021/09/11 10:24:01;;;;;;;20.00;15.85;;;;;;;;;;4787744;30;20031;-83
2021/09/11 10:26:46;;;;;;;20.60;15.60;;;;;;;;;;4785544;29;20116;-81
2021/09/11 10:29:30;;;;;;;20.08;15.43;;;;;;;;;;4786029;30;20031;-81
2021/09/11 10:32:06;;;;;;;19.15;15.48;;;;;;;;;;4784845;30;20031;-79
2021/09/11 10:34:44;;;;;;;21.48;15.70;;;;;;;;;;4750021;30;20035;-79
2021/09/11 10:37:10;;;;;;;21.85;15.50;;;;;;;;;;4789617;29;20047;-83
2021/09/11 10:39:36;;;;;;;19.27;15.30;;;;;;;;;;4768542;30;20114;-80
2021/09/11 10:42:08;;;;;;;18.55;15.02;;;;;;;;;;4768327;30;20604;-80
2021/09/11 10:44:39;;;;;;;18.13;14.80;;;;;;;;;;4781984;30;20070;-80
2021/09/11 10:47:04;;;;;;;18.77;15.18;;;;;;;;;;4784603;30;20027;-84
2021/09/11 10:49:30;;;;;;;20.00;14.70;;;;;;;;;;4786173;29;20088;-83
2021/09/11 10:52:04;;;;;;;20.42;15.23;;;;;;;;;;4784821;30;20466;-80
2021/09/11 10:54:40;;;;;;;18.55;14.75;;;;;;;;;;4781808;30;20034;-82
2021/09/11 10:57:13;;;;;;;21.58;14.88;;;;;;;;;;4783257;30;20058;-80
2021/09/11 10:59:46;;;;;;;20.30;14.77;;;;;;;;;;4782266;30;20043;-81
2021/09/11 11:02:22;;;;;;;;;;;;;;;;;;4786051;30;20502;-81
2021/09/11 11:05:05;;;;;;;18.20;13.95;;;;;;;;;;4784130;29;19940;-81
2021/09/11 11:07:32;;;;;;;18.05;14.93;;;;;;;;;;4769606;30;20038;-84
2021/09/11 11:10:00;;;;;;;16.25;13.85;;;;;;;;;;4773567;30;20038;-82
2021/09/11 11:12:31;;;;;;;19.08;13.82;;;;;;;;;;4774461;30;20046;-80
2021/09/11 11:15:12;;;;;;;18.38;14.68;;;;;;;;;;4784337;30;20768;-83
2021/09/11 11:17:41;;;;;;;19.92;14.68;;;;;;;;;;4785431;30;20039;-84
2021/09/11 11:20:08;;;;;;;19.23;14.70;;;;;;;;;;4774031;30;20039;-82
2021/09/11 11:22:38;;;;;;;18.58;14.23;;;;;;;;;;4785894;30;20077;-84
2021/09/11 11:25:09;;;;;;;15.98;13.60;;;;;;;;;;4784661;29;20047;-81
2021/09/11 11:27:36;;;;;;;17.05;13.73;;;;;;;;;;4784689;30;20069;-84
2021/09/11 11:30:04;;;;;;;19.25;14.00;;;;;;;;;;4779087;30;20039;-84
2021/09/11 11:32:32;;;;;;;15.48;13.48;;;;;;;;;;4790524;30;20047;-83
2021/09/11 11:34:59;;;;;;;15.60;13.57;;;;;;;;;;4786395;30;20031;-83
2021/09/11 11:37:37;;;;;;;18.38;13.65;;;;;;;;;;4785085;30;20038;-83
2021/09/11 11:40:11;;;;;;;16.50;14.00;;;;;;;;;;4782591;30;20035;-80
2021/09/11 11:42:38;;;;;;;17.17;14.50;;;;;;;;;;4777691;30;20449;-80
2021/09/11 11:45:06;;;;;;;17.73;14.40;;;;;;;;;;4790308;30;20619;-80
2021/09/11 11:48:03;;;;;;;15.50;13.80;;;;;;;;;;4782957;30;20050;-80
2021/09/11 11:50:31;;;;;;;15.18;13.13;;;;;;;;;;4767360;30;20114;-83
2021/09/11 11:53:12;;;;;;;16.02;13.63;;;;;;;;;;4789528;30;20055;-81
2021/09/11 11:55:45;;;;;;;17.13;14.02;;;;;;;;;;4786730;29;20044;-80
2021/09/11 11:58:18;;;;;;;16.15;13.95;;;;;;;;;;4788450;30;20027;-83
2021/09/11 12:00:52;;;;;;;14.98;13.35;;;;;;;;;;4769619;30;20046;-83
2021/09/11 12:03:39;;;;;;;20.38;15.60;;;;;;;;;;4788286;30;20071;-81
2021/09/11 12:06:07;;;;;;;21.55;15.02;;;;;;;;;;4788605;30;20046;-81
2021/09/11 12:08:39;;;;;;;16.40;14.57;;;;;;;;;;4787457;30;20035;-81
2021/09/11 12:11:04;;;;;;;16.93;14.80;;;;;;;;;;4770987;30;20034;-82
2021/09/11 12:13:30;;;;;;;19.60;13.75;;;;;;;;;;4770805;30;20283;-81
2021/09/11 12:15:56;;;;;;;10.63;9.27;;;;;;;;;;4787311;29;20112;-83
2021/09/11 12:18:22;;;;;;;8.98;7.93;;;;;;;;;;4788246;30;20087;-84
2021/09/11 12:20:53;;;;;;;13.93;7.13;;;;;;;;;;4771435;30;20488;-80
2021/09/11 12:23:20;;;;;;;7.50;6.57;;;;;;;;;;4770088;30;20043;-81
2021/09/11 12:26:04;;;;;;;8.70;6.28;;;;;;;;;;4787328;30;20168;-83
2021/09/11 12:28:38;;;;;;;8.00;5.05;;;;;;;;;;4770432;30;20069;-83
2021/09/11 12:31:25;;;;;;;5.75;4.60;;;;;;;;;;4766613;30;20038;-83
2021/09/11 12:34:00;;;;;;;5.93;4.55;;;;;;;;;;4758486;30;20043;-80
2021/09/11 12:36:36;;;;;;;8.00;4.60;;;;;;;;;;4777455;30;20043;-82
2021/09/11 12:39:22;;;;;;;7.38;4.78;;;;;;;;;;4771626;30;20046;-82
2021/09/11 12:41:49;;;;;;;7.00;4.95;;;;;;;;;;4788035;30;20036;-82
2021/09/11 12:44:20;;;;;;;7.80;5.00;;;;;;;;;;4786730;30;20039;-80
2021/09/11 12:46:53;;;;;;;8.38;5.18;;;;;;;;;;4787147;30;20066;-82
2021/09/11 12:49:20;;;;;;;6.55;5.00;;;;;;;;;;4765705;30;20155;-84
2021/09/11 12:51:47;;;;;;;6.28;5.35;;;;;;;;;;4788731;29;20054;-83
2021/09/11 12:54:16;;;;;;;7.15;5.60;;;;;;;;;;4784652;29;20080;-84
2021/09/11 12:56:42;;;;;;;7.47;5.63;;;;;;;;;;4772385;30;20040;-84
2021/09/11 12:59:08;;;;;;;6.13;5.28;;;;;;;;;;4773178;30;20499;-82
2021/09/11 13:01:37;;;;;;;7.35;5.75;;;;;;;;;;4787785;30;20059;-80
2021/09/11 13:04:08;;;;;;;7.05;6.30;;;;;;;;;;4782798;30;20031;-82
2021/09/11 13:06:34;;;;;;;8.23;6.10;;;;;;;;;;4772314;30;20038;-80
2021/09/11 13:09:01;;;;;;;10.75;6.18;;;;;;;;;;4789818;30;20487;-82
2021/09/11 13:11:26;;;;;;;7.32;6.10;;;;;;;;;;4772108;30;20531;-80
2021/09/11 13:13:52;;;;;;;7.97;7.00;;;;;;;;;;4784707;30;20035;-80
2021/09/11 13:16:18;;;;;;;9.05;7.35;;;;;;;;;;4785303;30;20095;-81
2021/09/11 13:18:44;;;;;;;10.35;7.80;;;;;;;;;;4786876;30;20046;-79
2021/09/11 13:21:11;;;;;;;11.13;7.97;;;;;;;;;;4788093;30;20058;-81
2021/09/11 13:23:38;;;;;;;11.13;9.07;;;;;;;;;;4772960;30;20035;-80
2021/09/11 13:26:05;;;;;;;11.40;9.75;;;;;;;;;;4771838;30;20039;-85
2021/09/11 13:28:31;;;;;;;13.75;10.95;;;;;;;;;;4771437;30;20035;-80
2021/09/11 13:30:56;;;;;;;13.55;11.82;;;;;;;;;;4785785;30;20045;-84
2021/09/11 13:33:21;;;;;;;15.35;12.43;;;;;;;;;;4771511;30;20031;-81
2021/09/11 13:35:47;;;;;;;12.68;11.38;;;;;;;;;;4756092;30;20039;-85
2021/09/11 13:38:12;;;;;;;15.10;12.02;;;;;;;;;;4785509;30;20039;-85
2021/09/11 13:40:38;;;;;;;12.85;11.40;;;;;;;;;;4755972;30;20039;-86
2021/09/11 13:43:03;;;;;;;13.75;11.73;;;;;;;;;;4784924;30;20055;-83
2021/09/11 13:45:29;;;;;;;15.98;12.32;;;;;;;;;;4770528;30;20062;-82
2021/09/11 13:47:54;;;;;;;14.63;11.65;;;;;;;;;;4770689;30;20042;-86
2021/09/11 13:50:20;;;;;;;16.00;11.93;;;;;;;;;;4769967;30;20177;-82
2021/09/11 13:52:45;;;;;;;17.17;12.88;;;;;;;;;;4767172;30;20072;-80
2021/09/11 13:55:11;;;;;;;13.93;12.25;;;;;;;;;;4794069;29;20515;-85
2021/09/11 13:57:36;;;;;;;16.80;12.05;;;;;;;;;;4784827;30;20066;-82
2021/09/11 14:00:03;;;;;;;14.05;10.73;;;;;;;;;;4759810;30;20031;-82
2021/09/11 14:02:28;;;;;;;13.02;10.10;;;;;;;;;;4753765;30;20031;-85
2021/09/11 14:04:54;;;;;;;12.65;9.82;;;;;;;;;;4764536;30;20039;-85
2021/09/11 14:07:19;;;;;;;12.25;9.93;;;;;;;;;;4755592;30;20038;-85
2021/09/11 14:09:44;;;;;;;11.40;8.95;;;;;;;;;;4756982;30;20055;-81
2021/09/11 14:12:10;;;;;;;5.53;4.60;;;;;;;;;;4786472;30;20108;-84
2021/09/11 14:14:35;;;;;;;7.15;5.00;;;;;;;;;;4757221;30;20373;-81
2021/09/11 14:17:02;;;;;;;8.38;5.65;;;;;;;;;;4760006;30;20044;-82
2021/09/11 14:19:29;;;;;;;7.30;6.10;;;;;;;;;;4786369;30;20031;-83
2021/09/11 14:21:55;;;;;;;12.90;8.43;;;;;;;;;;4771615;30;20039;-82
2021/09/11 14:24:20;;;;;;;11.52;8.75;;;;;;;;;;4771774;30;20044;-84
2021/09/11 14:26:46;;;;;;;12.60;10.05;;;;;;;;;;4754033;30;20044;-81
2021/09/11 14:29:11;;;;;;;11.63;9.77;;;;;;;;;;4781894;30;20038;-81